Time;durP1;ratioP1;P1;durP2;ratioP2;P2;SDS_P1;SDS_P2;PMS_P1;PMS_P2;Temp;Humidity;BMP_temperature;BMP_pressure;BME280_temperature;BME280_humidity;BME280_pressure;Samples;Min_cycle;Max_cycle;Signal;HPM_P1;HPM_P2
2023/03/29 00:00:24;;;;;;;6.13;2.40;;;9.20;65.90;;;;;;5102641;28;20039;-64
2023/03/29 00:02:50;;;;;;;5.32;2.30;;;9.20;65.90;;;;;;5092810;28;20036;-64
2023/03/29 00:05:18;;;;;;;6.75;3.08;;;9.20;65.90;;;;;;5093412;28;20032;-64
2023/03/29 00:07:44;;;;;;;7.22;2.97;;;9.20;65.90;;;;;;5092992;28;20036;-65
2023/03/29 00:10:12;;;;;;;6.88;2.67;;;9.20;65.90;;;;;;5091066;28;20031;-64
2023/03/29 00:12:40;;;;;;;8.57;2.88;;;9.20;65.90;;;;;;5092820;28;20084;-65
2023/03/29 00:15:07;;;;;;;6.63;2.70;;;9.20;66.10;;;;;;5095075;28;20054;-64
2023/03/29 00:17:33;;;;;;;6.18;2.65;;;9.20;65.90;;;;;;5096845;28;20027;-65
2023/03/29 00:19:59;;;;;;;8.25;2.65;;;9.20;65.90;;;;;;5093783;28;20047;-65
2023/03/29 00:22:25;;;;;;;5.45;2.67;;;9.20;65.90;;;;;;5092191;28;20028;-64
2023/03/29 00:24:54;;;;;;;6.95;2.65;;;9.20;65.90;;;;;;5088423;28;20049;-64
2023/03/29 00:27:21;;;;;;;8.07;2.97;;;9.20;65.90;;;;;;5093812;28;20047;-64
2023/03/29 00:29:47;;;;;;;5.85;2.58;;;9.20;66.00;;;;;;5098515;28;20047;-64
2023/03/29 00:32:13;;;;;;;7.35;3.33;;;9.20;66.00;;;;;;5092760;28;20080;-64
2023/03/29 00:34:41;;;;;;;6.55;2.58;;;9.20;66.00;;;;;;5094991;28;20023;-64
2023/03/29 00:37:08;;;;;;;8.82;3.33;;;9.20;66.00;;;;;;5092487;28;20043;-64
2023/03/29 00:39:35;;;;;;;5.70;2.58;;;9.20;66.10;;;;;;5091782;28;20032;-65
2023/03/29 00:42:01;;;;;;;7.88;2.95;;;9.20;66.70;;;;;;5098826;28;20441;-64
2023/03/29 00:45:05;;;;;;;6.85;2.55;;;9.20;66.00;;;;;;5092756;28;20028;-64
2023/03/29 00:47:38;;;;;;;7.22;2.58;;;9.20;66.00;;;;;;5086655;28;20131;-65
2023/03/29 00:50:21;;;;;;;7.20;2.67;;;9.20;66.00;;;;;;5099828;28;20066;-64
2023/03/29 00:52:53;;;;;;;6.50;2.42;;;9.20;66.00;;;;;;5095445;28;20028;-64
2023/03/29 00:55:22;;;;;;;6.57;2.20;;;9.20;66.00;;;;;;5087214;28;20051;-65
2023/03/29 00:57:52;;;;;;;5.93;2.50;;;9.20;65.90;;;;;;5092362;28;20031;-64
2023/03/29 01:00:21;;;;;;;6.40;2.83;;;9.20;66.00;;;;;;5092344;28;20028;-65
2023/03/29 01:02:52;;;;;;;5.50;2.35;;;9.20;65.90;;;;;;5099083;28;20028;-65
2023/03/29 01:05:44;;;;;;;6.70;2.72;;;9.20;66.00;;;;;;5096973;28;20028;-65
2023/03/29 01:08:24;;;;;;;6.78;2.70;;;9.20;66.00;;;;;;5080374;28;20036;-64
2023/03/29 01:11:06;;;;;;;5.65;2.55;;;9.20;66.10;;;;;;5103360;28;20495;-63
2023/03/29 01:13:42;;;;;;;7.57;2.85;;;9.20;66.10;;;;;;5096555;28;20089;-64
2023/03/29 01:16:11;;;;;;;6.93;2.55;;;9.20;66.10;;;;;;5103312;28;20043;-63
2023/03/29 01:18:37;;;;;;;6.05;2.50;;;9.20;66.20;;;;;;5089317;28;20376;-63
2023/03/29 01:21:19;;;;;;;7.13;2.72;;;9.20;66.20;;;;;;5090642;28;20085;-63
2023/03/29 01:24:11;;;;;;;8.50;2.53;;;9.20;66.30;;;;;;5097622;28;20050;-63
2023/03/29 01:26:51;;;;;;;7.57;3.08;;;9.20;66.30;;;;;;5100760;28;20035;-63
2023/03/29 01:29:40;;;;;;;6.43;2.40;;;9.20;66.30;;;;;;5096340;28;20352;-64
2023/03/29 01:32:22;;;;;;;5.85;2.40;;;9.20;66.40;;;;;;5101854;28;20431;-64
2023/03/29 01:34:57;;;;;;;6.50;2.67;;;9.20;67.00;;;;;;5096031;28;20133;-63
2023/03/29 01:37:33;;;;;;;7.40;3.00;;;9.20;66.20;;;;;;5094861;28;20036;-64
2023/03/29 01:40:00;;;;;;;7.75;2.67;;;9.20;66.00;;;;;;5096688;28;20020;-63
2023/03/29 01:42:34;;;;;;;5.32;2.20;;;9.20;66.00;;;;;;5106555;28;20099;-64
2023/03/29 01:45:18;;;;;;;5.90;2.42;;;9.20;65.90;;;;;;5097078;28;20060;-63
2023/03/29 01:47:55;;;;;;;7.18;2.50;;;9.20;65.80;;;;;;5095948;28;20028;-64
2023/03/29 01:50:38;;;;;;;7.18;2.67;;;9.30;65.70;;;;;;5101854;28;20032;-64
2023/03/29 01:53:07;;;;;;;7.18;2.70;;;9.30;65.60;;;;;;5099443;28;20040;-63
2023/03/29 01:55:37;;;;;;;6.45;2.70;;;9.30;65.50;;;;;;5105072;28;20096;-63
2023/03/29 01:58:06;;;;;;;6.90;2.60;;;9.30;65.50;;;;;;5095285;28;20119;-63
2023/03/29 02:00:33;;;;;;;5.88;2.53;;;9.30;65.40;;;;;;5076725;28;20082;-64
2023/03/29 02:03:05;;;;;;;5.57;2.38;;;9.40;66.10;;;;;;5102705;28;20028;-63
2023/03/29 02:05:32;;;;;;;5.18;2.63;;;9.40;65.40;;;;;;5094755;28;20031;-63
2023/03/29 02:08:00;;;;;;;6.75;2.50;;;9.40;65.30;;;;;;5101102;28;20169;-63
2023/03/29 02:10:27;;;;;;;5.80;2.88;;;9.40;65.30;;;;;;5109654;28;20457;-63
2023/03/29 02:12:52;;;;;;;6.80;2.90;;;9.40;65.30;;;;;;5104237;28;20084;-64
2023/03/29 02:15:20;;;;;;;5.47;2.35;;;9.40;65.30;;;;;;5096186;28;20118;-64
2023/03/29 02:17:48;;;;;;;8.63;2.45;;;9.40;65.30;;;;;;5102926;28;20448;-64
2023/03/29 02:20:32;;;;;;;5.97;2.97;;;9.40;65.30;;;;;;5088753;28;20028;-63
2023/03/29 02:23:13;;;;;;;7.03;2.90;;;9.40;65.30;;;;;;5105510;28;20163;-63
2023/03/29 02:25:41;;;;;;;6.03;2.47;;;9.40;65.30;;;;;;5096096;28;20024;-64
2023/03/29 02:28:08;;;;;;;6.93;2.67;;;9.40;65.30;;;;;;5101205;28;20020;-63
2023/03/29 02:30:49;;;;;;;7.18;2.58;;;9.40;65.40;;;;;;5092947;28;20108;-64
2023/03/29 02:33:40;;;;;;;6.35;2.42;;;9.40;65.40;;;;;;5105522;28;20020;-63
2023/03/29 02:36:22;;;;;;;7.07;2.83;;;9.40;65.40;;;;;;5083971;28;20059;-63
2023/03/29 02:38:51;;;;;;;6.05;2.58;;;9.40;65.40;;;;;;5099786;28;20016;-63
2023/03/29 02:41:17;;;;;;;7.95;2.47;;;9.40;65.50;;;;;;5095146;28;20119;-64
2023/03/29 02:43:46;;;;;;;8.00;2.80;;;9.40;65.70;;;;;;5101321;28;20047;-63
2023/03/29 02:46:15;;;;;;;8.13;2.67;;;9.50;65.90;;;;;;5101433;28;20051;-63
2023/03/29 02:48:45;;;;;;;7.70;2.53;;;9.40;66.10;;;;;;5103362;28;20041;-63
2023/03/29 02:51:19;;;;;;;7.40;2.95;;;9.40;66.20;;;;;;5081631;28;20020;-63
2023/03/29 02:53:56;;;;;;;7.40;3.10;;;9.40;66.40;;;;;;5086951;28;20023;-63
2023/03/29 02:56:22;;;;;;;7.20;3.03;;;9.40;66.60;;;;;;5094860;28;20032;-64
2023/03/29 02:58:48;;;;;;;6.38;2.70;;;9.40;66.80;;;;;;5094326;28;20019;-63
2023/03/29 03:01:15;;;;;;;8.15;3.42;;;9.40;67.10;;;;;;5084132;28;20024;-64
2023/03/29 03:03:41;;;;;;;7.32;2.92;;;9.40;67.30;;;;;;5094455;28;20028;-64
2023/03/29 03:06:07;;;;;;;6.97;2.95;;;9.40;67.60;;;;;;5094391;28;20360;-64
2023/03/29 03:08:33;;;;;;;8.70;2.95;;;9.40;67.80;;;;;;5094023;28;20085;-63
2023/03/29 03:10:59;;;;;;;5.97;2.67;;;9.40;68.10;;;;;;5095195;28;20020;-64
2023/03/29 03:13:25;;;;;;;8.75;3.60;;;9.30;68.40;;;;;;5093529;28;20020;-64
2023/03/29 03:15:50;;;;;;;7.70;3.20;;;9.30;68.70;;;;;;5094289;28;20031;-64
2023/03/29 03:18:17;;;;;;;6.88;2.80;;;9.30;69.10;;;;;;5094702;28;20345;-64
2023/03/29 03:20:45;;;;;;;9.10;3.38;;;9.30;69.20;;;;;;5095238;28;20031;-64
2023/03/29 03:23:11;;;;;;;13.43;3.05;;;9.30;69.50;;;;;;5093464;28;20039;-64
2023/03/29 03:25:37;;;;;;;8.18;3.05;;;9.30;70.40;;;;;;5092946;28;20317;-64
2023/03/29 03:28:03;;;;;;;6.60;2.97;;;9.30;69.80;;;;;;5094587;28;20039;-64
2023/03/29 03:30:32;;;;;;;8.75;3.65;;;9.30;70.00;;;;;;5093350;28;20028;-64
2023/03/29 03:33:17;;;;;;;7.43;3.05;;;9.20;70.10;;;;;;5089298;28;20069;-64
2023/03/29 03:35:46;;;;;;;7.75;3.17;;;9.30;70.30;;;;;;5094193;28;20063;-65
2023/03/29 03:38:14;;;;;;;7.03;3.10;;;9.20;70.40;;;;;;5094978;28;20395;-63
2023/03/29 03:40:41;;;;;;;7.20;3.53;;;9.20;70.50;;;;;;5094236;28;20019;-63
2023/03/29 03:43:07;;;;;;;7.05;2.97;;;9.20;70.70;;;;;;5095224;28;20024;-63
2023/03/29 03:45:41;;;;;;;8.80;3.58;;;9.20;70.70;;;;;;5071192;28;20517;-63
2023/03/29 03:48:16;;;;;;;7.47;3.00;;;9.20;70.90;;;;;;5059720;28;20075;-63
2023/03/29 03:50:55;;;;;;;8.10;3.17;;;9.20;70.90;;;;;;5048552;28;20057;-63
2023/03/29 03:53:24;;;;;;;7.15;2.78;;;9.20;71.00;;;;;;5056387;28;20428;-63
2023/03/29 03:56:09;;;;;;;6.85;3.42;;;9.30;71.10;;;;;;5064609;28;20035;-64
2023/03/29 03:58:45;;;;;;;8.18;3.25;;;9.30;71.20;;;;;;5061239;28;20400;-64
2023/03/29 04:01:11;;;;;;;7.35;3.17;;;9.20;71.20;;;;;;5052848;28;20029;-64
2023/03/29 04:03:45;;;;;;;8.93;3.47;;;9.30;71.40;;;;;;5060180;28;20047;-64
2023/03/29 04:06:13;;;;;;;5.88;2.90;;;9.30;71.40;;;;;;5069829;28;20021;-63
2023/03/29 04:08:58;;;;;;;5.60;2.63;;;9.30;72.20;;;;;;5058752;28;20531;-63
2023/03/29 04:11:48;;;;;;;10.48;3.55;;;9.30;71.50;;;;;;5045023;28;20021;-63
2023/03/29 04:14:14;;;;;;;8.05;3.58;;;9.30;71.60;;;;;;5049513;28;20439;-63
2023/03/29 04:16:55;;;;;;;5.28;2.60;;;9.30;71.70;;;;;;5040792;28;20032;-65
2023/03/29 04:20:01;;;;;;;7.68;3.60;;;9.30;71.70;;;;;;5030895;28;20109;-64
2023/03/29 04:22:30;;;;;;;7.93;3.30;;;9.30;71.70;;;;;;5020179;28;20446;-64
2023/03/29 04:24:56;;;;;;;7.15;3.00;;;9.30;71.70;;;;;;5046855;28;21616;-65
2023/03/29 04:27:33;;;;;;;7.00;3.25;;;9.30;71.80;;;;;;5032709;28;20053;-64
2023/03/29 04:30:05;;;;;;;7.15;3.13;;;9.30;71.70;;;;;;5037531;28;20030;-64
2023/03/29 04:32:52;;;;;;;6.47;2.80;;;9.40;71.80;;;;;;5031608;28;20033;-64
2023/03/29 04:35:18;;;;;;;8.55;3.38;;;9.40;71.80;;;;;;5049552;28;20018;-63
2023/03/29 04:37:44;;;;;;;8.32;3.50;;;9.40;71.90;;;;;;5030884;28;20047;-63
2023/03/29 04:40:13;;;;;;;6.55;2.90;;;9.40;71.90;;;;;;5034404;28;20026;-63
2023/03/29 04:43:02;;;;;;;7.95;3.80;;;9.40;71.90;;;;;;5048039;28;20025;-63
2023/03/29 04:45:29;;;;;;;8.90;2.85;;;9.40;71.90;;;;;;5075080;28;20190;-63
2023/03/29 04:48:05;;;;;;;8.40;3.13;;;9.40;71.90;;;;;;5047657;28;20029;-63
2023/03/29 04:50:31;;;;;;;8.98;3.33;;;9.40;71.90;;;;;;5037911;28;20022;-63
2023/03/29 04:52:59;;;;;;;10.15;3.25;;;9.40;71.90;;;;;;5068464;28;20075;-63
2023/03/29 04:55:26;;;;;;;9.48;2.97;;;9.40;71.90;;;;;;5042801;28;20074;-63
2023/03/29 04:58:01;;;;;;;7.15;2.85;;;9.40;71.80;;;;;;5036399;28;20034;-63
2023/03/29 05:00:34;;;;;;;8.18;3.50;;;9.40;71.80;;;;;;5034436;28;20041;-63
2023/03/29 05:03:00;;;;;;;7.45;3.47;;;9.40;71.80;;;;;;5034871;28;20034;-63
2023/03/29 05:05:28;;;;;;;7.65;3.28;;;9.40;71.70;;;;;;5017797;28;20032;-64
2023/03/29 05:07:56;;;;;;;7.72;3.00;;;9.40;71.70;;;;;;5030782;28;20466;-64
2023/03/29 05:10:27;;;;;;;8.65;3.10;;;9.40;72.30;;;;;;5034924;28;20028;-63
2023/03/29 05:12:53;;;;;;;7.60;3.22;;;9.50;71.70;;;;;;5033531;28;20853;-63
2023/03/29 05:15:20;;;;;;;7.28;3.28;;;9.40;71.70;;;;;;5035738;28;20033;-64
2023/03/29 05:17:48;;;;;;;6.60;3.22;;;9.40;71.70;;;;;;5034749;28;20462;-63
2023/03/29 05:20:15;;;;;;;7.72;3.65;;;9.50;71.80;;;;;;5032858;28;20021;-63
2023/03/29 05:22:43;;;;;;;7.30;3.25;;;9.50;71.80;;;;;;5033364;28;20350;-63
2023/03/29 05:25:13;;;;;;;7.55;3.33;;;9.50;71.80;;;;;;5033132;28;20030;-62
2023/03/29 05:27:41;;;;;;;10.05;3.92;;;9.50;71.80;;;;;;5036145;28;20410;-63
2023/03/29 05:30:09;;;;;;;8.00;3.30;;;9.50;71.80;;;;;;5067943;28;20013;-64
2023/03/29 05:32:43;;;;;;;8.40;3.47;;;9.50;72.50;;;;;;5036189;28;20359;-64
2023/03/29 05:35:13;;;;;;;6.45;3.20;;;9.50;71.90;;;;;;5018218;28;20095;-64
2023/03/29 05:37:38;;;;;;;9.05;3.45;;;9.50;71.90;;;;;;5032881;28;20029;-64
2023/03/29 05:40:08;;;;;;;6.65;3.08;;;9.50;71.90;;;;;;5033398;28;20461;-64
2023/03/29 05:42:58;;;;;;;10.93;3.67;;;9.50;71.90;;;;;;5035818;28;20116;-64
2023/03/29 05:45:27;;;;;;;7.85;3.72;;;9.50;71.80;;;;;;5067550;28;20176;-64
2023/03/29 05:47:53;;;;;;;10.80;3.63;;;9.50;71.70;;;;;;5033651;28;20053;-64
2023/03/29 05:50:19;;;;;;;7.90;3.25;;;9.50;71.70;;;;;;5033467;28;20076;-64
2023/03/29 05:52:44;;;;;;;8.48;3.15;;;9.60;71.60;;;;;;5034711;28;20017;-65
2023/03/29 05:55:10;;;;;;;6.43;3.10;;;9.60;71.50;;;;;;5043069;28;20025;-64
2023/03/29 05:57:36;;;;;;;7.88;3.03;;;9.60;71.40;;;;;;5036609;28;20029;-64
2023/03/29 06:00:22;;;;;;;6.95;3.05;;;9.60;71.30;;;;;;5044658;28;20037;-62
2023/03/29 06:02:54;;;;;;;7.43;3.55;;;9.60;71.30;;;;;;5054681;28;20025;-63
2023/03/29 06:05:21;;;;;;;8.48;3.45;;;9.60;71.20;;;;;;5037017;28;20021;-64
2023/03/29 06:07:56;;;;;;;7.25;3.20;;;9.70;71.20;;;;;;5018736;28;20025;-63
2023/03/29 06:10:41;;;;;;;7.55;3.00;;;9.70;71.20;;;;;;5046311;28;20037;-64
2023/03/29 06:13:33;;;;;;;7.47;3.00;;;9.70;71.70;;;;;;5030924;28;20026;-64
2023/03/29 06:16:00;;;;;;;8.05;3.35;;;9.70;70.90;;;;;;5032740;28;20025;-64
2023/03/29 06:18:27;;;;;;;9.25;3.30;;;9.70;70.80;;;;;;5023800;28;20025;-63
2023/03/29 06:20:53;;;;;;;7.43;3.25;;;9.80;70.80;;;;;;5039430;28;20033;-64
2023/03/29 06:23:20;;;;;;;7.03;3.15;;;9.80;70.70;;;;;;5054037;28;20365;-64
2023/03/29 06:25:46;;;;;;;6.82;2.78;;;9.90;70.60;;;;;;5044565;28;20036;-64
2023/03/29 06:28:13;;;;;;;7.07;3.92;;;9.90;70.40;;;;;;5036642;28;20331;-64
2023/03/29 06:30:40;;;;;;;8.18;3.40;;;10.00;70.30;;;;;;5031478;28;20443;-64
2023/03/29 06:33:07;;;;;;;8.90;3.47;;;10.00;70.10;;;;;;5040726;28;20053;-64
2023/03/29 06:35:47;;;;;;;7.63;3.42;;;10.00;69.90;;;;;;5048368;28;20049;-65
2023/03/29 06:38:16;;;;;;;7.53;3.35;;;10.10;69.90;;;;;;5034466;28;20403;-64
2023/03/29 06:41:06;;;;;;;6.10;3.17;;;10.10;69.80;;;;;;5013197;28;20045;-63
2023/03/29 06:43:53;;;;;;;8.60;3.53;;;10.10;69.60;;;;;;5036548;28;20040;-63
2023/03/29 06:46:22;;;;;;;6.72;2.75;;;10.10;69.50;;;;;;5039836;28;20140;-63
2023/03/29 06:48:55;;;;;;;7.30;3.20;;;10.20;69.40;;;;;;5037466;28;20049;-63
2023/03/29 06:51:22;;;;;;;8.02;3.13;;;10.20;69.30;;;;;;5041484;28;20442;-63
2023/03/29 06:53:48;;;;;;;6.57;3.15;;;10.20;69.30;;;;;;5052677;28;20025;-63
2023/03/29 06:56:16;;;;;;;8.02;3.67;;;10.20;69.40;;;;;;5051343;28;20058;-63
2023/03/29 06:58:46;;;;;;;7.30;3.45;;;10.20;69.40;;;;;;5053079;28;20112;-64
2023/03/29 07:01:28;;;;;;;6.75;3.28;;;10.30;69.60;;;;;;5043458;28;20143;-64
2023/03/29 07:04:03;;;;;;;7.82;3.63;;;10.30;69.70;;;;;;5037477;28;20025;-63
2023/03/29 07:06:33;;;;;;;7.38;3.55;;;10.40;69.80;;;;;;5046586;28;20131;-64
2023/03/29 07:09:00;;;;;;;6.72;3.30;;;10.40;69.90;;;;;;5048641;28;20021;-64
2023/03/29 07:11:59;;;;;;;8.05;3.60;;;10.40;70.10;;;;;;5041903;28;20026;-64
2023/03/29 07:14:28;;;;;;;10.57;4.10;;;10.50;70.20;;;;;;5034792;28;20177;-63
2023/03/29 07:16:55;;;;;;;8.93;3.60;;;10.50;70.30;;;;;;5046698;28;20103;-63
2023/03/29 07:19:32;;;;;;;10.43;3.90;;;10.50;70.40;;;;;;5044724;28;20450;-64
2023/03/29 07:22:27;;;;;;;9.88;4.00;;;10.50;70.40;;;;;;5036889;28;20446;-64
2023/03/29 07:24:59;;;;;;;9.65;3.60;;;10.50;70.50;;;;;;5047648;28;20022;-64
2023/03/29 07:27:25;;;;;;;8.63;3.25;;;10.50;70.60;;;;;;5045154;28;20075;-64
2023/03/29 07:29:51;;;;;;;8.48;3.30;;;10.50;70.70;;;;;;5036615;28;20078;-64
2023/03/29 07:32:18;;;;;;;10.70;3.90;;;10.50;70.70;;;;;;5053181;28;20465;-63
2023/03/29 07:34:45;;;;;;;8.30;3.65;;;10.50;70.70;;;;;;5049444;28;20054;-64
2023/03/29 07:37:19;;;;;;;9.18;3.95;;;10.50;70.70;;;;;;5047671;28;20029;-64
2023/03/29 07:39:46;;;;;;;8.20;3.97;;;10.60;70.70;;;;;;5052889;28;20029;-64
2023/03/29 07:42:32;;;;;;;7.00;3.78;;;10.60;70.70;;;;;;5052788;28;20434;-63
2023/03/29 07:44:58;;;;;;;8.57;3.67;;;10.70;70.50;;;;;;5047859;28;20112;-64
2023/03/29 07:47:30;;;;;;;6.93;3.25;;;10.70;71.00;;;;;;5046958;28;20025;-64
2023/03/29 07:49:56;;;;;;;8.27;3.55;;;10.80;70.20;;;;;;5036057;28;20021;-64
2023/03/29 07:52:22;;;;;;;9.77;4.45;;;10.80;70.00;;;;;;5052887;28;20481;-64
2023/03/29 07:54:48;;;;;;;9.00;3.80;;;10.90;70.00;;;;;;5049945;28;20087;-64
2023/03/29 07:57:23;;;;;;;11.10;4.18;;;10.90;69.80;;;;;;5052539;28;20048;-65
2023/03/29 07:59:53;;;;;;;7.53;3.90;;;11.00;69.70;;;;;;5047662;28;20025;-64
2023/03/29 08:02:23;;;;;;;8.45;3.58;;;11.00;69.60;;;;;;5051784;28;20167;-64
2023/03/29 08:04:52;;;;;;;10.20;4.40;;;11.10;69.60;;;;;;5047765;28;20029;-64
2023/03/29 08:07:37;;;;;;;9.73;4.13;;;11.10;69.50;;;;;;5035360;28;20136;-64
2023/03/29 08:10:29;;;;;;;7.93;3.80;;;11.10;69.40;;;;;;5047137;28;20042;-64
2023/03/29 08:13:14;;;;;;;9.38;3.97;;;11.10;69.30;;;;;;5045477;28;20051;-64
2023/03/29 08:15:59;;;;;;;9.00;4.05;;;11.10;69.20;;;;;;5053736;28;20126;-64
2023/03/29 08:18:31;;;;;;;9.32;4.40;;;11.10;69.20;;;;;;5049045;28;20371;-64
2023/03/29 08:20:56;;;;;;;8.93;4.05;;;11.20;69.20;;;;;;5045095;28;20037;-64
2023/03/29 08:23:22;;;;;;;11.90;3.92;;;11.20;69.20;;;;;;5047897;28;20402;-64
2023/03/29 08:25:59;;;;;;;9.05;3.95;;;11.20;69.10;;;;;;5036527;28;20102;-64
2023/03/29 08:28:25;;;;;;;9.80;3.83;;;11.30;69.00;;;;;;5044940;28;20085;-64
2023/03/29 08:30:51;;;;;;;9.80;4.38;;;11.30;69.00;;;;;;5040056;28;20332;-65
2023/03/29 08:33:17;;;;;;;8.13;4.22;;;11.30;68.90;;;;;;5035484;28;20098;-64
2023/03/29 08:35:48;;;;;;;10.90;4.63;;;11.30;68.90;;;;;;5025057;28;20028;-63
2023/03/29 08:38:20;;;;;;;7.53;3.80;;;11.30;68.80;;;;;;5035713;28;20028;-63
2023/03/29 08:40:48;;;;;;;9.88;4.18;;;11.30;68.90;;;;;;5033249;28;20533;-63
2023/03/29 08:43:27;;;;;;;8.10;3.95;;;11.40;68.90;;;;;;5040481;28;20406;-63
2023/03/29 08:46:17;;;;;;;8.75;4.07;;;11.40;68.90;;;;;;5056430;28;20407;-64
2023/03/29 08:48:52;;;;;;;10.80;4.35;;;11.50;68.90;;;;;;5048764;28;20032;-64
2023/03/29 08:51:26;;;;;;;10.45;4.80;;;11.50;68.80;;;;;;5047189;28;20367;-63
2023/03/29 08:54:04;;;;;;;9.30;4.03;;;11.70;68.70;;;;;;5039727;28;20076;-64
2023/03/29 08:56:51;;;;;;;11.02;4.32;;;11.80;68.50;;;;;;5047003;28;20029;-63
2023/03/29 08:59:30;;;;;;;9.75;4.53;;;11.90;68.30;;;;;;5025769;28;20345;-64
2023/03/29 09:02:00;;;;;;;11.60;5.32;;;12.00;68.20;;;;;;5044779;28;20032;-64
2023/03/29 09:04:30;;;;;;;9.63;5.07;;;12.10;68.10;;;;;;5055835;28;20041;-63
2023/03/29 09:07:10;;;;;;;10.02;4.80;;;12.10;68.00;;;;;;5045723;28;20061;-64
2023/03/29 09:09:41;;;;;;;10.48;5.18;;;12.20;68.00;;;;;;5055380;28;20021;-63
2023/03/29 09:12:52;;;;;;;10.95;5.07;;;12.20;68.00;;;;;;5041803;28;20029;-64
2023/03/29 09:15:23;;;;;;;8.85;4.95;;;12.20;68.10;;;;;;5055591;28;20033;-63
2023/03/29 09:18:08;;;;;;;10.60;5.05;;;12.20;68.30;;;;;;5045181;28;20028;-63
2023/03/29 09:21:19;;;;;;;10.68;5.22;;;12.20;68.60;;;;;;5053676;28;20064;-64
2023/03/29 09:23:45;;;;;;;11.63;5.68;;;12.10;68.80;;;;;;5037486;28;20438;-64
2023/03/29 09:26:38;;;;;;;9.30;5.40;;;12.10;69.10;;;;;;5031583;28;20075;-64
2023/03/29 09:29:41;;;;;;;10.02;5.00;;;12.10;69.60;;;;;;5056412;28;20331;-64
2023/03/29 09:32:18;;;;;;;10.70;5.63;;;12.10;69.80;;;;;;5052986;28;20104;-63
2023/03/29 09:35:32;;;;;;;11.38;5.32;;;12.20;70.00;;;;;;5026340;28;20397;-64
2023/03/29 09:37:59;;;;;;;8.93;5.35;;;12.40;70.00;;;;;;5041991;28;20033;-64
2023/03/29 09:40:52;;;;;;;11.18;5.43;;;12.40;69.60;;;;;;5055029;28;20393;-64
2023/03/29 09:43:36;;;;;;;11.68;6.05;;;12.50;69.80;;;;;;5041681;28;20032;-64
2023/03/29 09:46:20;;;;;;;13.40;5.97;;;12.50;69.90;;;;;;5054853;28;20099;-64
2023/03/29 09:48:48;;;;;;;11.43;5.60;;;12.50;70.00;;;;;;5055256;28;20053;-64
2023/03/29 09:51:15;;;;;;;12.93;6.10;;;12.60;69.90;;;;;;5052657;28;20315;-64
2023/03/29 09:53:41;;;;;;;15.13;6.57;;;12.60;70.00;;;;;;5042496;28;20028;-64
2023/03/29 09:56:28;;;;;;;12.10;6.20;;;12.70;70.00;;;;;;5054668;28;20021;-64
2023/03/29 09:59:14;;;;;;;10.38;6.30;;;12.80;70.10;;;;;;5055445;28;20445;-65
2023/03/29 10:01:44;;;;;;;11.93;7.32;;;12.80;70.20;;;;;;5033146;28;20051;-64
2023/03/29 10:04:11;;;;;;;11.80;6.50;;;12.80;70.20;;;;;;5037920;28;20083;-64
2023/03/29 10:06:48;;;;;;;14.35;6.68;;;12.90;70.20;;;;;;5054311;28;20029;-64
2023/03/29 10:09:25;;;;;;;13.27;6.88;;;12.90;70.40;;;;;;5054431;28;20075;-64
2023/03/29 10:12:03;;;;;;;11.18;6.55;;;12.90;70.50;;;;;;5050969;28;20044;-64
2023/03/29 10:14:37;;;;;;;;;;;12.90;70.50;;;;;;5056593;28;20124;-65
2023/03/29 10:17:18;;;;;;;10.73;4.97;;;12.90;70.50;;;;;;5054342;28;19913;-65
2023/03/29 10:20:01;;;;;;;10.50;6.20;;;12.90;70.60;;;;;;5055825;28;20199;-64
2023/03/29 10:22:34;;;;;;;11.48;6.10;;;13.00;70.70;;;;;;5043810;28;20025;-65
2023/03/29 10:24:59;;;;;;;12.15;6.47;;;13.00;70.50;;;;;;5053254;28;20120;-65
2023/03/29 10:27:30;;;;;;;9.52;5.55;;;13.10;70.60;;;;;;5038358;28;20100;-65
2023/03/29 10:29:59;;;;;;;12.45;6.57;;;13.20;70.50;;;;;;5055141;28;20033;-64
2023/03/29 10:32:32;;;;;;;9.65;5.75;;;13.20;70.30;;;;;;5050446;28;20055;-64
2023/03/29 10:35:19;;;;;;;12.18;6.38;;;13.30;70.40;;;;;;5053851;28;20453;-64
2023/03/29 10:37:50;;;;;;;12.32;6.57;;;13.30;70.30;;;;;;5054819;28;20433;-64
2023/03/29 10:40:24;;;;;;;11.95;6.25;;;13.40;70.30;;;;;;5054901;28;20033;-65
2023/03/29 10:42:52;;;;;;;11.77;6.82;;;13.50;70.20;;;;;;5050930;28;20029;-64
2023/03/29 10:45:32;;;;;;;10.57;6.40;;;13.50;70.20;;;;;;5039416;28;20037;-65
2023/03/29 10:47:58;;;;;;;10.68;6.00;;;13.50;70.20;;;;;;5045516;28;20045;-65
2023/03/29 10:50:31;;;;;;;12.30;6.55;;;13.60;70.30;;;;;;5034523;28;20075;-64
2023/03/29 10:52:56;;;;;;;12.95;6.32;;;13.50;70.30;;;;;;5045187;28;20018;-64
2023/03/29 10:55:31;;;;;;;9.82;6.55;;;13.50;70.50;;;;;;5037337;28;20087;-64
2023/03/29 10:58:06;;;;;;;9.85;6.07;;;13.50;70.60;;;;;;5038309;28;20037;-65
2023/03/29 11:00:42;;;;;;;11.73;6.47;;;13.40;70.70;;;;;;5031797;28;20034;-65
2023/03/29 11:03:39;;;;;;;11.65;6.72;;;13.40;71.00;;;;;;5034403;28;20402;-66
2023/03/29 11:06:16;;;;;;;11.40;6.97;;;13.40;71.30;;;;;;5022644;28;20041;-65
2023/03/29 11:08:52;;;;;;;12.35;6.80;;;13.40;71.50;;;;;;5036420;28;20025;-65
2023/03/29 11:11:46;;;;;;;10.88;6.55;;;13.40;71.60;;;;;;5052345;28;20029;-65
2023/03/29 11:14:49;;;;;;;15.23;6.55;;;13.50;72.00;;;;;;5043353;28;20040;-65
2023/03/29 11:17:36;;;;;;;11.15;6.18;;;13.50;72.10;;;;;;5031520;28;20029;-65
2023/03/29 11:20:31;;;;;;;10.25;6.35;;;13.60;72.60;;;;;;5030809;28;20060;-64
2023/03/29 11:23:37;;;;;;;11.70;6.78;;;13.70;72.00;;;;;;5030427;28;20090;-63
2023/03/29 11:26:24;;;;;;;10.45;6.25;;;13.70;71.90;;;;;;5034523;28;20038;-64
2023/03/29 11:29:03;;;;;;;10.07;6.00;;;13.60;72.00;;;;;;5033604;28;20104;-63
2023/03/29 11:32:06;;;;;;;11.00;5.57;;;13.50;72.20;;;;;;5030909;28;20438;-63
2023/03/29 11:34:51;;;;;;;11.68;5.43;;;13.50;72.30;;;;;;5044540;28;20642;-63
2023/03/29 11:37:25;;;;;;;9.63;5.78;;;13.50;72.30;;;;;;5038325;28;20037;-63
2023/03/29 11:40:30;;;;;;;10.30;5.93;;;13.40;72.30;;;;;;5029652;28;20359;-64
2023/03/29 11:42:59;;;;;;;10.95;6.10;;;13.40;72.50;;;;;;5046392;28;20322;-63
2023/03/29 11:45:31;;;;;;;13.32;6.15;;;13.30;72.60;;;;;;5033564;28;20081;-64
2023/03/29 11:48:00;;;;;;;13.00;6.68;;;13.30;72.70;;;;;;5030841;28;20323;-64
2023/03/29 11:50:45;;;;;;;12.38;6.43;;;13.20;72.90;;;;;;5034494;28;20076;-64
2023/03/29 11:53:21;;;;;;;9.88;5.60;;;13.20;73.20;;;;;;5032848;28;20395;-63
2023/03/29 11:55:50;;;;;;;10.52;5.85;;;13.20;73.40;;;;;;5032958;28;20025;-64
2023/03/29 11:58:26;;;;;;;11.20;6.57;;;13.10;73.50;;;;;;5029360;28;20044;-63
2023/03/29 12:01:01;;;;;;;11.18;5.47;;;13.10;73.60;;;;;;5030937;28;20529;-63
2023/03/29 12:04:08;;;;;;;10.93;6.82;;;13.20;73.60;;;;;;5020671;28;20056;-66
2023/03/29 12:06:48;;;;;;;10.75;6.18;;;13.10;73.60;;;;;;5022864;28;20050;-64
2023/03/29 12:09:48;;;;;;;10.48;5.93;;;13.20;73.60;;;;;;5021736;28;20033;-63
2023/03/29 12:12:25;;;;;;;9.57;5.95;;;13.20;73.60;;;;;;5027463;28;20144;-63
2023/03/29 12:15:09;;;;;;;9.45;5.88;;;13.30;73.50;;;;;;5033692;28;20096;-63
2023/03/29 12:17:42;;;;;;;9.98;6.00;;;13.30;73.40;;;;;;5040972;28;20030;-63
2023/03/29 12:20:27;;;;;;;12.55;6.28;;;13.40;73.30;;;;;;5039389;28;20029;-62
2023/03/29 12:22:54;;;;;;;9.63;6.13;;;13.40;73.40;;;;;;5051386;28;20134;-63
2023/03/29 12:25:29;;;;;;;13.32;6.78;;;13.40;73.40;;;;;;5031465;28;20049;-63
2023/03/29 12:28:34;;;;;;;11.18;5.95;;;13.40;73.50;;;;;;5035678;28;20047;-63
2023/03/29 12:31:16;;;;;;;10.40;5.93;;;13.40;73.60;;;;;;5050237;28;20057;-63
2023/03/29 12:34:02;;;;;;;9.20;5.93;;;13.40;73.60;;;;;;5012472;28;20040;-63
2023/03/29 12:37:05;;;;;;;13.85;6.10;;;13.40;73.60;;;;;;5032020;28;20049;-67
2023/03/29 12:39:50;;;;;;;9.57;5.28;;;13.50;73.60;;;;;;5038085;28;20395;-63
2023/03/29 12:42:45;;;;;;;10.20;5.78;;;13.50;73.50;;;;;;5054516;28;20477;-63
2023/03/29 12:45:47;;;;;;;10.23;5.43;;;13.60;73.60;;;;;;5044540;28;20128;-63
2023/03/29 12:48:17;;;;;;;9.00;5.38;;;13.60;73.60;;;;;;5030430;28;20025;-64
2023/03/29 12:50:52;;;;;;;9.23;5.47;;;13.60;73.70;;;;;;5051566;28;20051;-63
2023/03/29 12:53:25;;;;;;;11.32;6.18;;;13.50;73.80;;;;;;5053231;28;20227;-63
2023/03/29 12:56:00;;;;;;;9.35;5.70;;;13.50;73.90;;;;;;5042025;28;20025;-62
2023/03/29 12:58:54;;;;;;;9.35;5.80;;;13.50;74.00;;;;;;5052550;28;20043;-63
2023/03/29 13:01:35;;;;;;;9.48;5.35;;;13.50;74.10;;;;;;5052296;28;20045;-63
2023/03/29 13:04:19;;;;;;;9.90;5.40;;;13.50;74.20;;;;;;5029663;28;20306;-63
2023/03/29 13:06:48;;;;;;;9.15;5.43;;;13.40;74.20;;;;;;5038979;28;20025;-63
2023/03/29 13:09:28;;;;;;;8.98;5.18;;;13.50;74.30;;;;;;5041361;28;20400;-63
2023/03/29 13:12:09;;;;;;;10.07;5.13;;;13.50;74.30;;;;;;5034664;28;20064;-64
2023/03/29 13:14:41;;;;;;;11.45;5.82;;;13.50;74.30;;;;;;5044250;28;20283;-64
2023/03/29 13:17:21;;;;;;;11.32;5.40;;;13.50;74.40;;;;;;5025184;28;20030;-64
2023/03/29 13:20:06;;;;;;;8.43;5.05;;;13.50;74.40;;;;;;5046065;28;20044;-64
2023/03/29 13:22:49;;;;;;;9.57;5.05;;;13.50;74.40;;;;;;5043065;28;20040;-64
2023/03/29 13:26:06;;;;;;;10.15;5.82;;;13.60;75.10;;;;;;5042685;28;20091;-63
2023/03/29 13:29:01;;;;;;;10.73;5.68;;;13.60;74.20;;;;;;5026330;28;20044;-64